createdAt,value
2019-05-16T00:02:15.762Z,14.57
2019-05-16T00:04:48.152Z,14.57
2019-05-16T00:07:19.388Z,14.52
2019-05-16T00:09:50.481Z,14.49
2019-05-16T00:12:21.521Z,14.51
2019-05-16T00:14:52.382Z,14.51
2019-05-16T00:17:23.376Z,14.52
2019-05-16T00:19:54.415Z,14.55
2019-05-16T00:22:25.364Z,14.54
2019-05-16T00:24:57.989Z,14.51
2019-05-16T00:27:28.727Z,14.54
2019-05-16T00:29:59.579Z,14.64
2019-05-16T00:32:30.623Z,14.78
2019-05-16T00:35:01.480Z,14.89
2019-05-16T00:37:32.353Z,15.04
2019-05-16T00:40:03.518Z,15.14
2019-05-16T00:42:34.167Z,15.06
2019-05-16T00:45:09.219Z,15.02
2019-05-16T00:47:40.173Z,15.13
2019-05-16T00:50:11.422Z,14.91
2019-05-16T00:52:42.601Z,14.81
2019-05-16T00:55:14.582Z,14.88
2019-05-16T00:57:48.197Z,14.83
2019-05-16T01:00:21.701Z,14.69
2019-05-16T01:02:52.570Z,14.63
2019-05-16T01:05:23.632Z,14.63
2019-05-16T01:07:54.590Z,14.58
2019-05-16T01:10:25.532Z,14.71
2019-05-16T01:12:58.413Z,14.80
2019-05-16T01:15:28.855Z,14.83
2019-05-16T01:17:59.940Z,14.90
2019-05-16T01:20:31.017Z,14.82
2019-05-16T01:23:02.079Z,14.91
2019-05-16T01:25:33.036Z,14.92
2019-05-16T01:28:03.876Z,14.75
2019-05-16T01:30:34.957Z,14.44
2019-05-16T01:33:08.656Z,14.44
2019-05-16T01:35:38.709Z,14.47
2019-05-16T01:38:09.568Z,14.41
2019-05-16T01:40:40.510Z,14.30
2019-05-16T01:43:11.467Z,14.29
2019-05-16T01:45:42.340Z,14.17
2019-05-16T01:48:14.850Z,14.05
2019-05-16T01:50:47.940Z,14.07
2019-05-16T01:53:18.132Z,14.03
2019-05-16T01:55:49.550Z,14.08
2019-05-16T01:58:20.503Z,14.14
2019-05-16T02:01:03.258Z,14.11
2019-05-16T02:03:23.859Z,14.16
2019-05-16T02:05:54.915Z,14.18
2019-05-16T02:08:25.858Z,14.18
2019-05-16T02:10:58.406Z,14.24
2019-05-16T02:13:29.841Z,14.26
2019-05-16T02:16:00.897Z,14.29
2019-05-16T02:18:31.857Z,14.38
2019-05-16T02:21:02.698Z,14.46
2019-05-16T02:23:33.773Z,14.51
2019-05-16T02:26:04.733Z,14.55
2019-05-16T02:28:40.120Z,14.63
2019-05-16T02:31:11.959Z,14.88
2019-05-16T02:33:40.777Z,14.86
2019-05-16T02:36:11.840Z,15.04
2019-05-16T02:38:42.697Z,15.22
2019-05-16T02:41:13.855Z,15.42
2019-05-16T02:43:44.496Z,15.42
2019-05-16T02:46:15.245Z,15.52
2019-05-16T02:48:46.424Z,15.76
2019-05-16T02:51:17.076Z,15.74
2019-05-16T02:53:50.889Z,15.69
2019-05-16T02:56:21.587Z,15.86
2019-05-16T02:58:52.716Z,15.85
2019-05-16T03:01:23.569Z,15.91
2019-05-16T03:03:54.635Z,16.10
2019-05-16T03:06:27.297Z,16.31
2019-05-16T03:09:01.846Z,16.94
2019-05-16T03:11:32.210Z,17.50
2019-05-16T03:14:05.313Z,17.87
2019-05-16T03:16:41.550Z,18.32
2019-05-16T03:19:13.573Z,18.80
2019-05-16T03:21:45.046Z,18.92
2019-05-16T03:24:16.109Z,18.96
2019-05-16T03:26:46.943Z,18.99
2019-05-16T03:29:17.817Z,19.25
2019-05-16T03:31:53.662Z,19.10
2019-05-16T03:34:25.312Z,19.14
2019-05-16T03:36:54.895Z,18.94
2019-05-16T03:39:25.824Z,18.78
2019-05-16T03:41:56.809Z,18.52
2019-05-16T03:44:31.468Z,18.51
2019-05-16T03:47:01.132Z,18.17
2019-05-16T03:49:31.810Z,17.98
2019-05-16T03:52:02.804Z,18.14
2019-05-16T03:54:33.843Z,18.08
2019-05-16T03:57:04.689Z,18.13
2019-05-16T03:59:35.554Z,18.42
2019-05-16T04:02:06.624Z,18.48
2019-05-16T04:04:37.567Z,18.46
2019-05-16T04:07:11.014Z,18.55
2019-05-16T04:09:41.470Z,18.47
2019-05-16T04:12:12.377Z,18.62
2019-05-16T04:14:43.437Z,19.02
2019-05-16T04:17:14.314Z,19.23
2019-05-16T04:19:45.271Z,19.52
2019-05-16T04:22:16.122Z,19.54
2019-05-16T04:24:47.166Z,19.67
2019-05-16T04:27:21.209Z,19.94
2019-05-16T04:29:51.360Z,19.97
2019-05-16T04:32:22.415Z,20.32
2019-05-16T04:34:53.453Z,20.40
2019-05-16T04:37:26.371Z,20.65
2019-05-16T04:39:57.258Z,20.86
2019-05-16T04:42:30.766Z,21.33
2019-05-16T04:45:01.052Z,21.50
2019-05-16T04:47:32.237Z,21.65
2019-05-16T04:50:03.301Z,21.85
2019-05-16T04:52:34.154Z,22.04
2019-05-16T04:55:07.059Z,21.96
2019-05-16T04:57:41.977Z,22.30
2019-05-16T05:00:11.774Z,22.64
2019-05-16T05:02:42.908Z,22.80
2019-05-16T05:05:14.145Z,22.48
2019-05-16T05:07:45.034Z,22.80
2019-05-16T05:10:16.288Z,23.15
2019-05-16T05:12:46.853Z,23.47
2019-05-16T05:15:21.043Z,23.30
2019-05-16T05:17:50.799Z,23.60
2019-05-16T05:20:21.560Z,23.65
2019-05-16T05:22:52.403Z,23.75
2019-05-16T05:25:23.483Z,23.86
2019-05-16T05:27:55.976Z,23.47
2019-05-16T05:30:54.341Z,23.82
2019-05-16T05:33:25.404Z,23.86
2019-05-16T05:35:56.369Z,23.97
2019-05-16T05:38:27.298Z,24.10
2019-05-16T05:41:00.205Z,24.14
2019-05-16T05:43:30.749Z,24.30
2019-05-16T05:46:01.834Z,24.34
2019-05-16T05:48:32.788Z,24.46
2019-05-16T05:51:03.850Z,24.38
2019-05-16T05:53:34.687Z,24.47
2019-05-16T05:56:05.646Z,24.53
2019-05-16T05:58:37.748Z,24.52
2019-05-16T06:01:11.192Z,24.81
2019-05-16T06:03:40.991Z,24.81
2019-05-16T06:06:11.952Z,24.85
2019-05-16T06:08:43.012Z,24.83
2019-05-16T06:11:14.069Z,24.70
2019-05-16T06:13:44.927Z,24.64
2019-05-16T06:16:16.000Z,24.59
2019-05-16T06:18:46.946Z,24.72
2019-05-16T06:21:20.276Z,24.53
2019-05-16T06:23:51.062Z,24.49
2019-05-16T06:26:21.871Z,24.75
2019-05-16T06:28:52.723Z,24.74
2019-05-16T06:31:23.459Z,24.81
2019-05-16T06:33:54.541Z,24.83
2019-05-16T06:36:25.376Z,24.88
2019-05-16T06:38:56.336Z,24.97
2019-05-16T06:41:27.190Z,25.01
2019-05-16T06:43:59.948Z,25.08
2019-05-16T06:46:30.779Z,25.37
2019-05-16T06:49:01.823Z,25.54
2019-05-16T06:51:32.766Z,25.36
2019-05-16T06:54:03.640Z,25.49
2019-05-16T06:56:34.695Z,25.59
2019-05-16T06:59:06.660Z,25.39
2019-05-16T07:01:40.007Z,25.50
2019-05-16T07:04:10.591Z,25.51
2019-05-16T07:06:54.737Z,25.61
2019-05-16T07:09:13.887Z,25.53
2019-05-16T07:11:45.051Z,25.53
2019-05-16T07:14:15.741Z,25.11
2019-05-16T07:16:49.742Z,25.11
2019-05-16T07:19:20.830Z,25.16
2019-05-16T07:21:51.952Z,25.32
2019-05-16T07:24:23.021Z,25.60
2019-05-16T07:26:53.870Z,25.78
2019-05-16T07:29:26.362Z,26.15
2019-05-16T07:32:01.843Z,26.08
2019-05-16T07:34:33.186Z,26.09
2019-05-16T07:37:04.351Z,26.34
2019-05-16T07:39:39.306Z,26.47
2019-05-16T07:42:16.527Z,26.09
2019-05-16T07:44:50.622Z,26.09
2019-05-16T07:47:23.422Z,26.11
2019-05-16T07:50:01.419Z,26.11
2019-05-16T07:52:36.452Z,26.18
2019-05-16T07:55:06.123Z,26.32
2019-05-16T07:57:47.401Z,26.12
2019-05-16T08:00:45.873Z,26.08
2019-05-16T08:05:41.946Z,26.19
2019-05-16T08:08:13.024Z,26.16
2019-05-16T08:10:46.715Z,26.06
2019-05-16T08:13:17.697Z,26.21
2019-05-16T08:15:50.286Z,26.22
2019-05-16T08:18:21.775Z,26.43
2019-05-16T08:20:52.946Z,26.43
2019-05-16T08:23:24.198Z,26.71
2019-05-16T08:25:55.036Z,26.60
2019-05-16T08:28:25.916Z,26.69
2019-05-16T08:30:56.849Z,26.76
2019-05-16T08:33:27.824Z,26.75
2019-05-16T08:36:02.931Z,26.73
2019-05-16T08:38:31.488Z,26.76
2019-05-16T08:41:10.981Z,26.85
2019-05-16T08:43:34.810Z,26.88
2019-05-16T08:46:05.990Z,26.66
2019-05-16T08:48:36.953Z,26.40
2019-05-16T08:51:08.122Z,26.32
2019-05-16T08:53:43.467Z,26.55
2019-05-16T08:56:22.130Z,26.75
2019-05-16T08:58:54.980Z,26.74
2019-05-16T09:01:27.084Z,26.86
2019-05-16T09:04:04.545Z,26.83
2019-05-16T09:06:52.491Z,26.84
2019-05-16T09:09:42.637Z,26.96
2019-05-16T09:12:07.933Z,26.96
2019-05-16T09:14:41.354Z,27.16
2019-05-16T09:17:12.220Z,26.96
2019-05-16T09:19:43.270Z,26.86
2019-05-16T09:22:17.978Z,26.70
2019-05-16T09:24:48.568Z,26.83
2019-05-16T09:27:19.524Z,27.16
2019-05-16T09:29:50.580Z,27.06
2019-05-16T09:32:21.989Z,26.85
2019-05-16T09:34:59.554Z,27.08
2019-05-16T09:37:30.219Z,27.14
2019-05-16T09:40:12.755Z,27.06
2019-05-16T09:42:52.773Z,27.07
2019-05-16T09:45:27.476Z,27.12
2019-05-16T09:47:59.820Z,27.21
2019-05-16T09:50:30.980Z,27.11
2019-05-16T09:53:01.528Z,27.13
2019-05-16T09:55:32.484Z,27.47
2019-05-16T09:58:07.107Z,27.53
2019-05-16T10:00:37.539Z,27.27
2019-05-16T10:03:14.084Z,27.48
2019-05-16T10:05:46.694Z,27.53
2019-05-16T10:08:23.543Z,27.63
2019-05-16T10:13:47.087Z,27.49
2019-05-16T10:16:20.758Z,27.51
2019-05-16T10:18:51.491Z,27.41
2019-05-16T10:21:22.452Z,28.11
2019-05-16T10:23:53.431Z,27.83
2019-05-16T10:26:27.460Z,28.04
2019-05-16T10:28:57.780Z,27.74
2019-05-16T10:31:41.502Z,27.90
2019-05-16T10:34:01.025Z,27.72
2019-05-16T10:36:32.120Z,28.03
2019-05-16T10:39:03.472Z,28.16
2019-05-16T10:41:34.025Z,28.02
2019-05-16T10:44:06.251Z,28.04
2019-05-16T10:46:37.623Z,27.94
2019-05-16T10:49:08.544Z,28.32
2019-05-16T10:51:39.397Z,27.95
2019-05-16T10:54:13.956Z,27.98
2019-05-16T10:56:46.986Z,28.36
2019-05-16T11:01:51.797Z,27.97
2019-05-16T11:04:33.474Z,28.11
2019-05-16T11:06:57.212Z,28.40
2019-05-16T11:09:28.065Z,28.10
2019-05-16T11:11:59.124Z,28.29
2019-05-16T11:14:31.602Z,28.15
2019-05-16T11:17:02.679Z,27.98
2019-05-16T11:19:33.640Z,27.89
2019-05-16T11:22:04.479Z,28.19
2019-05-16T11:24:37.779Z,28.46
2019-05-16T11:27:07.926Z,28.29
2019-05-16T11:29:39.003Z,28.50
2019-05-16T11:32:09.963Z,28.51
2019-05-16T11:34:40.804Z,28.21
2019-05-16T11:37:11.882Z,28.06
2019-05-16T11:39:42.839Z,28.46
2019-05-16T11:42:13.901Z,28.15
2019-05-16T11:44:47.612Z,27.93
2019-05-16T11:47:17.062Z,28.10
2019-05-16T11:49:47.884Z,28.26
2019-05-16T11:52:18.740Z,28.34
2019-05-16T11:54:49.614Z,28.32
2019-05-16T11:57:20.674Z,28.08
2019-05-16T11:59:51.629Z,28.09
2019-05-16T12:02:23.713Z,28.31
2019-05-16T12:04:57.748Z,28.21
2019-05-16T12:07:33.243Z,28.03
2019-05-16T12:09:59.499Z,28.09
2019-05-16T12:12:30.395Z,28.21
2019-05-16T12:15:01.369Z,28.38
2019-05-16T12:17:32.311Z,28.13
2019-05-16T12:20:03.392Z,28.45
2019-05-16T12:22:34.230Z,28.19
2019-05-16T12:25:08.209Z,28.28
2019-05-16T12:27:42.213Z,28.36
2019-05-16T12:30:13.596Z,28.30
2019-05-16T12:32:47.898Z,28.37
2019-05-16T12:35:19.103Z,28.27
2019-05-16T12:37:51.898Z,28.46
2019-05-16T12:40:22.510Z,28.28
2019-05-16T12:42:54.409Z,28.21
2019-05-16T12:45:27.540Z,28.38
2019-05-16T12:47:58.250Z,28.38
2019-05-16T12:50:29.214Z,28.58
2019-05-16T12:53:00.046Z,28.40
2019-05-16T12:55:31.126Z,28.45
2019-05-16T12:58:13.586Z,28.12
2019-05-16T13:00:44.032Z,28.39
2019-05-16T13:03:15.661Z,28.29
2019-05-16T13:05:47.792Z,28.35
2019-05-16T13:08:27.014Z,28.22
2019-05-16T13:10:58.018Z,28.19
2019-05-16T13:13:28.986Z,28.18
2019-05-16T13:16:00.092Z,28.39
2019-05-16T13:18:31.028Z,28.27
2019-05-16T13:21:01.969Z,28.00
2019-05-16T13:23:32.738Z,28.31
2019-05-16T13:26:03.973Z,28.29
2019-05-16T13:28:34.535Z,28.32
2019-05-16T13:31:08.869Z,28.26
2019-05-16T13:33:39.437Z,28.19
2019-05-16T13:36:10.508Z,28.17
2019-05-16T13:38:41.346Z,28.28
2019-05-16T13:41:12.209Z,28.36
2019-05-16T13:43:43.272Z,28.39
2019-05-16T13:46:14.238Z,28.40
2019-05-16T13:48:45.285Z,28.34
2019-05-16T13:51:18.981Z,28.44
2019-05-16T13:53:48.516Z,28.43
2019-05-16T13:56:19.617Z,28.33
2019-05-16T13:58:50.438Z,28.37
2019-05-16T14:01:22.247Z,28.38
2019-05-16T14:03:53.269Z,28.46
2019-05-16T14:06:24.334Z,28.15
2019-05-16T14:08:56.768Z,28.03
2019-05-16T14:11:27.697Z,28.07
2019-05-16T14:13:58.537Z,28.12
2019-05-16T14:16:29.609Z,28.24
2019-05-16T14:19:00.672Z,28.28
2019-05-16T14:21:31.630Z,28.03
2019-05-16T14:24:02.469Z,28.18
2019-05-16T14:26:33.555Z,28.39
2019-05-16T14:29:04.739Z,28.22
2019-05-16T14:31:37.726Z,28.18
2019-05-16T14:34:08.162Z,28.28
2019-05-16T14:36:39.223Z,28.82
2019-05-16T14:39:10.183Z,29.22
2019-05-16T14:41:41.036Z,30.17
2019-05-16T14:44:12.204Z,29.69
2019-05-16T14:46:42.733Z,30.18
2019-05-16T14:49:13.491Z,30.42
2019-05-16T14:51:47.582Z,29.91
2019-05-16T14:54:18.795Z,30.36
2019-05-16T14:56:49.965Z,30.31
2019-05-16T14:59:21.000Z,31.31
2019-05-16T15:01:52.810Z,30.60
2019-05-16T15:04:29.810Z,31.36
2019-05-16T15:06:57.392Z,31.08
2019-05-16T15:09:28.230Z,30.88
2019-05-16T15:11:58.984Z,30.53
2019-05-16T15:14:29.922Z,31.18
2019-05-16T15:17:00.778Z,31.33
2019-05-16T15:19:31.686Z,30.51
2019-05-16T15:22:02.763Z,30.84
2019-05-16T15:24:33.787Z,30.76
2019-05-16T15:27:07.902Z,31.27
2019-05-16T15:29:37.828Z,30.62
2019-05-16T15:32:09.002Z,31.03
2019-05-16T15:34:39.960Z,30.88
2019-05-16T15:37:11.022Z,30.88
2019-05-16T15:39:41.979Z,30.57
2019-05-16T15:42:13.039Z,30.81
2019-05-16T15:44:43.877Z,31.71
2019-05-16T15:47:17.430Z,31.39
2019-05-16T15:49:47.922Z,31.26
2019-05-16T15:52:19.205Z,30.60
2019-05-16T15:54:50.899Z,30.14
2019-05-16T15:57:21.533Z,30.15
2019-05-16T15:59:52.515Z,30.08
2019-05-16T16:02:23.448Z,29.78
2019-05-16T16:04:57.558Z,29.40
2019-05-16T16:07:27.928Z,28.94
2019-05-16T16:09:58.680Z,28.79
2019-05-16T16:12:29.761Z,28.82
2019-05-16T16:15:00.606Z,28.62
2019-05-16T16:17:31.553Z,27.97
2019-05-16T16:20:02.587Z,27.24
2019-05-16T16:22:33.695Z,26.70
2019-05-16T16:25:06.861Z,26.25
2019-05-16T16:27:38.062Z,25.98
2019-05-16T16:30:09.313Z,25.88
2019-05-16T16:32:40.085Z,25.64
2019-05-16T16:35:14.013Z,25.57
2019-05-16T16:37:46.955Z,25.44
2019-05-16T16:40:18.393Z,25.44
2019-05-16T16:42:49.033Z,25.25
2019-05-16T16:45:20.418Z,25.12
2019-05-16T16:47:52.993Z,24.95
2019-05-16T16:50:26.566Z,24.97
2019-05-16T16:52:57.261Z,24.83
2019-05-16T16:55:28.424Z,24.76
2019-05-16T16:58:02.450Z,24.37
2019-05-16T17:00:33.390Z,24.37
2019-05-16T17:03:07.201Z,24.46
2019-05-16T17:05:37.316Z,24.45
2019-05-16T17:08:08.415Z,24.20
2019-05-16T17:10:39.494Z,24.07
2019-05-16T17:13:11.842Z,23.95
2019-05-16T17:15:42.432Z,23.80
2019-05-16T17:18:13.495Z,23.68
2019-05-16T17:20:44.331Z,23.56
2019-05-16T17:23:17.122Z,23.41
2019-05-16T17:25:47.495Z,23.39
2019-05-16T17:28:18.458Z,23.31
2019-05-16T17:30:49.309Z,23.16
2019-05-16T17:33:20.373Z,23.09
2019-05-16T17:35:51.215Z,23.10
2019-05-16T17:38:21.964Z,23.13
2019-05-16T17:40:53.041Z,23.06
2019-05-16T17:43:23.998Z,23.12
2019-05-16T17:45:57.302Z,23.05
2019-05-16T17:48:29.936Z,23.01
2019-05-16T17:51:00.664Z,22.91
2019-05-16T17:53:31.497Z,22.92
2019-05-16T17:56:06.871Z,22.90
2019-05-16T17:58:37.831Z,22.92
2019-05-16T18:01:09.725Z,22.74
2019-05-16T18:03:40.663Z,22.73
2019-05-16T18:06:12.628Z,22.65
2019-05-16T18:08:46.651Z,22.60
2019-05-16T18:11:18.667Z,22.45
2019-05-16T18:13:50.122Z,22.40
2019-05-16T18:16:21.185Z,22.40
2019-05-16T18:18:52.042Z,22.34
2019-05-16T18:21:24.515Z,22.22
2019-05-16T18:23:55.448Z,22.21
2019-05-16T18:26:28.993Z,22.17
2019-05-16T18:28:59.557Z,22.22
2019-05-16T18:31:32.286Z,22.16
2019-05-16T18:34:03.316Z,22.07
2019-05-16T18:36:34.375Z,22.16
2019-05-16T18:39:11.044Z,22.03
2019-05-16T18:41:43.538Z,22.05
2019-05-16T18:44:17.782Z,21.94
2019-05-16T18:47:03.958Z,21.95
2019-05-16T18:49:24.107Z,21.99
2019-05-16T18:51:56.928Z,21.95
2019-05-16T18:54:30.724Z,21.80
2019-05-16T18:57:01.670Z,21.81
2019-05-16T18:59:36.909Z,21.82
2019-05-16T19:02:10.209Z,21.86
2019-05-16T19:04:40.266Z,21.83
2019-05-16T19:07:17.613Z,21.81
2019-05-16T19:09:50.078Z,21.74
2019-05-16T19:12:23.401Z,21.66
2019-05-16T19:14:57.185Z,21.68
2019-05-16T19:17:28.457Z,21.61
2019-05-16T19:19:59.332Z,21.59
2019-05-16T19:22:30.378Z,21.59
2019-05-16T19:25:01.558Z,21.48
2019-05-16T19:27:37.039Z,21.40
2019-05-16T19:30:09.405Z,21.31
2019-05-16T19:32:40.464Z,21.26
2019-05-16T19:35:13.427Z,21.19
2019-05-16T19:37:44.311Z,21.10
2019-05-16T19:40:17.327Z,20.98
2019-05-16T19:42:48.079Z,20.90
2019-05-16T19:45:19.531Z,20.91
2019-05-16T19:47:50.493Z,20.79
2019-05-16T19:50:23.775Z,20.75
2019-05-16T19:52:57.536Z,20.59
2019-05-16T19:55:28.380Z,20.58
2019-05-16T19:57:59.250Z,20.59
2019-05-16T20:00:31.967Z,20.65
2019-05-16T20:03:07.696Z,20.62
2019-05-16T20:05:38.593Z,20.66
2019-05-16T20:08:09.527Z,20.54
2019-05-16T20:10:49.691Z,20.53
2019-05-16T20:13:20.942Z,20.40
2019-05-16T20:15:51.819Z,20.39
2019-05-16T20:18:22.872Z,20.33
2019-05-16T20:20:56.755Z,20.26
2019-05-16T20:23:27.827Z,20.17
2019-05-16T20:25:58.918Z,20.10
2019-05-16T20:28:29.765Z,20.13
2019-05-16T20:31:00.843Z,20.09
2019-05-16T20:33:31.897Z,20.14
2019-05-16T20:36:02.836Z,20.09
2019-05-16T20:38:33.916Z,20.10
2019-05-16T20:41:07.602Z,20.08
2019-05-16T20:43:37.860Z,20.09
2019-05-16T20:46:08.942Z,20.06
2019-05-16T20:49:07.779Z,20.09
2019-05-16T20:51:38.994Z,20.06
2019-05-16T20:54:09.724Z,20.04
2019-05-16T20:56:40.252Z,20.02
2019-05-16T20:59:11.052Z,19.92
2019-05-16T21:01:41.965Z,19.90
2019-05-16T21:04:12.687Z,19.84
2019-05-16T21:06:56.772Z,19.77
2019-05-16T21:09:17.012Z,19.75
2019-05-16T21:11:50.118Z,19.71
2019-05-16T21:14:20.360Z,19.74
2019-05-16T21:16:51.196Z,19.75
2019-05-16T21:19:22.053Z,19.72
2019-05-16T21:21:52.910Z,19.70
2019-05-16T21:24:23.764Z,19.74
2019-05-16T21:26:54.696Z,19.69
2019-05-16T21:29:27.628Z,19.64
2019-05-16T21:31:58.174Z,19.63
2019-05-16T21:34:28.924Z,19.60
2019-05-16T21:37:11.226Z,19.66
2019-05-16T21:39:32.175Z,19.55
2019-05-16T21:42:03.150Z,19.54
2019-05-16T21:44:33.781Z,19.58
2019-05-16T21:47:04.845Z,19.55
2019-05-16T21:49:36.980Z,19.56
2019-05-16T21:52:08.076Z,19.50
2019-05-16T21:54:38.890Z,19.56
2019-05-16T21:57:09.787Z,19.46
2019-05-16T21:59:40.700Z,19.46
2019-05-16T22:02:11.824Z,19.37
2019-05-16T22:04:42.679Z,19.37
2019-05-16T22:07:13.739Z,19.31
2019-05-16T22:09:46.589Z,19.24
2019-05-16T22:12:17.518Z,19.20
2019-05-16T22:14:52.815Z,19.25
2019-05-16T22:17:23.308Z,19.22
2019-05-16T22:19:56.251Z,19.20
2019-05-16T22:22:29.825Z,19.09
2019-05-16T22:24:58.974Z,19.13
2019-05-16T22:27:29.998Z,19.06
2019-05-16T22:30:00.897Z,19.03
2019-05-16T22:32:31.918Z,19.06
2019-05-16T22:35:02.569Z,18.97
2019-05-16T22:37:46.156Z,18.88
2019-05-16T22:40:09.085Z,18.97
2019-05-16T22:42:39.534Z,18.95
2019-05-16T22:45:12.197Z,18.94
2019-05-16T22:47:42.777Z,18.88
2019-05-16T22:50:17.652Z,18.87
2019-05-16T22:52:47.659Z,18.74
2019-05-16T22:55:18.975Z,18.78
2019-05-16T22:57:49.885Z,18.71
2019-05-16T23:00:22.889Z,18.52
2019-05-16T23:02:53.834Z,18.57
2019-05-16T23:05:27.230Z,18.46
2019-05-16T23:08:04.963Z,18.33
2019-05-16T23:10:30.198Z,18.27
2019-05-16T23:13:00.852Z,18.35
2019-05-16T23:15:31.604Z,18.38
2019-05-16T23:18:02.666Z,18.22
2019-05-16T23:20:33.565Z,18.17
2019-05-16T23:23:06.898Z,18.13
2019-05-16T23:25:37.257Z,18.15
2019-05-16T23:28:08.034Z,18.13
2019-05-16T23:30:38.891Z,18.09
2019-05-16T23:33:09.848Z,18.01
2019-05-16T23:35:43.205Z,17.98
2019-05-16T23:38:19.461Z,17.89
2019-05-16T23:40:46.913Z,18.05
2019-05-16T23:43:17.571Z,17.94
2019-05-16T23:45:48.527Z,17.86
2019-05-16T23:48:19.483Z,17.82
2019-05-16T23:50:50.342Z,17.88
2019-05-16T23:53:21.196Z,17.80
2019-05-16T23:55:51.953Z,17.96
2019-05-16T23:58:22.658Z,17.90
